createdAt,value
2023-09-11T00:00:15.834Z,5.60
2023-09-11T00:02:42.809Z,3.83
2023-09-11T00:05:09.833Z,4.77
2023-09-11T00:07:37.429Z,4.30
2023-09-11T00:10:04.494Z,4.03
2023-09-11T00:12:31.399Z,4.73
2023-09-11T00:14:58.238Z,4.40
2023-09-11T00:17:25.250Z,4.20
2023-09-11T00:19:52.114Z,4.30
2023-09-11T00:22:18.926Z,4.10
2023-09-11T00:24:45.716Z,4.17
2023-09-11T00:27:12.657Z,3.90
2023-09-11T00:29:39.694Z,4.10
2023-09-11T00:32:06.741Z,3.97
2023-09-11T00:34:33.728Z,4.20
2023-09-11T00:37:00.534Z,4.00
2023-09-11T00:39:27.333Z,3.57
2023-09-11T00:41:54.245Z,4.07
2023-09-11T00:44:22.026Z,3.47
2023-09-11T00:46:48.984Z,3.40
2023-09-11T00:49:16.455Z,4.10
2023-09-11T00:51:43.632Z,3.93
2023-09-11T00:54:10.873Z,3.93
2023-09-11T00:56:37.805Z,4.60
2023-09-11T00:59:05.120Z,4.73
2023-09-11T01:01:32.990Z,4.43
2023-09-11T01:04:00.551Z,4.53
2023-09-11T01:06:27.708Z,4.43
2023-09-11T01:08:56.485Z,3.87
2023-09-11T01:11:23.794Z,3.77
2023-09-11T01:13:50.842Z,4.20
2023-09-11T01:16:44.427Z,4.07
2023-09-11T01:19:32.990Z,3.93
2023-09-11T01:22:18.508Z,3.80
2023-09-11T01:24:59.360Z,4.33
2023-09-11T01:28:04.397Z,3.80
2023-09-11T01:30:31.894Z,4.07
2023-09-11T01:32:59.504Z,4.00
2023-09-11T01:35:26.420Z,3.50
2023-09-11T01:37:56.268Z,4.30
2023-09-11T01:40:25.929Z,4.40
2023-09-11T01:42:56.419Z,3.67
2023-09-11T01:45:24.526Z,4.37
2023-09-11T01:47:54.245Z,3.70
2023-09-11T01:50:24.411Z,3.83
2023-09-11T01:52:52.005Z,4.07
2023-09-11T01:55:18.915Z,4.30
2023-09-11T01:57:45.808Z,3.60
2023-09-11T02:00:13.516Z,3.80
2023-09-11T02:02:40.963Z,3.80
2023-09-11T02:05:08.769Z,3.50
2023-09-11T02:07:35.708Z,4.07
2023-09-11T02:10:03.119Z,4.40
2023-09-11T02:12:31.105Z,3.80
2023-09-11T02:14:58.214Z,3.97
2023-09-11T02:17:25.198Z,4.40
2023-09-11T02:19:52.002Z,4.13
2023-09-11T02:22:18.993Z,3.20
2023-09-11T02:24:45.786Z,4.00
2023-09-11T02:27:12.592Z,3.63
2023-09-11T02:29:39.380Z,3.33
2023-09-11T02:32:06.452Z,2.90
2023-09-11T02:34:33.285Z,4.23
2023-09-11T02:37:00.120Z,4.03
2023-09-11T02:39:26.922Z,3.47
2023-09-11T02:41:53.761Z,3.80
2023-09-11T02:44:20.664Z,3.70
2023-09-11T02:46:47.579Z,3.60
2023-09-11T02:49:14.353Z,4.90
2023-09-11T02:51:41.139Z,4.20
2023-09-11T02:54:08.053Z,4.50
2023-09-11T02:56:39.066Z,4.07
2023-09-11T02:59:06.545Z,4.20
2023-09-11T03:01:34.280Z,4.57
2023-09-11T03:04:01.200Z,4.03
2023-09-11T03:06:28.025Z,4.00
2023-09-11T03:08:54.873Z,3.77
2023-09-11T03:11:22.836Z,5.13
2023-09-11T03:13:50.558Z,3.63
2023-09-11T03:16:17.805Z,4.83
2023-09-11T03:18:45.587Z,4.00
2023-09-11T03:21:12.977Z,4.37
2023-09-11T03:23:40.243Z,3.60
2023-09-11T03:26:14.881Z,4.03
2023-09-11T03:28:46.558Z,4.87
2023-09-11T03:31:13.353Z,4.70
2023-09-11T03:33:40.288Z,5.13
2023-09-11T03:36:07.427Z,3.97
2023-09-11T03:38:34.243Z,4.40
2023-09-11T03:41:04.346Z,4.80
2023-09-11T03:43:31.209Z,3.97
2023-09-11T03:45:58.244Z,4.80
2023-09-11T03:48:25.348Z,5.27
2023-09-11T03:50:52.314Z,3.60
2023-09-11T03:53:19.182Z,4.97
2023-09-11T03:55:46.142Z,4.90
2023-09-11T03:58:13.127Z,3.70
2023-09-11T04:00:39.964Z,4.33
2023-09-11T04:03:06.928Z,4.17
2023-09-11T04:05:33.883Z,3.73
2023-09-11T04:08:00.666Z,4.47
2023-09-11T04:10:27.552Z,4.03
2023-09-11T04:12:54.359Z,3.57
2023-09-11T04:15:21.221Z,3.47
2023-09-11T04:17:48.145Z,4.00
2023-09-11T04:20:15.151Z,4.20
2023-09-11T04:22:42.109Z,3.80
2023-09-11T04:25:08.989Z,4.63
2023-09-11T04:27:35.797Z,3.57
2023-09-11T04:30:03.608Z,3.70
2023-09-11T04:32:31.664Z,3.83
2023-09-11T04:34:58.594Z,3.80
2023-09-11T04:37:25.496Z,4.00
2023-09-11T04:39:52.353Z,3.77
2023-09-11T04:42:19.221Z,4.23
2023-09-11T04:44:46.727Z,3.30
2023-09-11T04:47:13.592Z,4.13
2023-09-11T04:49:40.362Z,3.83
2023-09-11T04:52:07.179Z,3.53
2023-09-11T04:54:33.945Z,3.87
2023-09-11T04:57:00.773Z,4.63
2023-09-11T04:59:27.783Z,3.63
2023-09-11T05:01:54.718Z,3.13
2023-09-11T05:04:21.727Z,4.20
2023-09-11T05:06:48.619Z,3.90
2023-09-11T05:09:15.820Z,3.90
2023-09-11T05:11:43.574Z,3.20
2023-09-11T05:14:10.441Z,4.57
2023-09-11T05:16:37.299Z,3.87
2023-09-11T05:19:04.344Z,4.33
2023-09-11T05:21:32.206Z,5.30
2023-09-11T05:23:59.084Z,3.40
2023-09-11T05:26:25.963Z,3.77
2023-09-11T05:28:52.889Z,4.10
2023-09-11T05:31:19.695Z,4.60
2023-09-11T05:33:46.555Z,4.20
2023-09-11T05:36:13.506Z,4.47
2023-09-11T05:38:40.547Z,4.27
2023-09-11T05:41:07.682Z,3.90
2023-09-11T05:43:34.654Z,3.60
2023-09-11T05:46:01.484Z,3.90
2023-09-11T05:48:28.551Z,3.97
2023-09-11T05:50:55.435Z,4.00
2023-09-11T05:53:22.395Z,4.57
2023-09-11T05:55:49.382Z,3.87
2023-09-11T05:58:16.559Z,3.53
2023-09-11T06:00:43.737Z,3.07
2023-09-11T06:03:10.854Z,4.13
2023-09-11T06:05:40.917Z,4.07
2023-09-11T06:08:08.410Z,4.30
2023-09-11T06:10:35.492Z,4.00
2023-09-11T06:13:02.667Z,5.80
2023-09-11T06:15:30.642Z,4.30
2023-09-11T06:17:57.725Z,3.77
2023-09-11T06:20:24.749Z,4.53
2023-09-11T06:22:52.328Z,4.43
2023-09-11T06:25:19.273Z,4.60
2023-09-11T06:27:46.296Z,3.80
2023-09-11T06:30:13.348Z,4.70
2023-09-11T06:32:40.453Z,4.10
2023-09-11T06:35:07.757Z,4.07
2023-09-11T06:37:34.851Z,4.53
2023-09-11T06:40:02.333Z,4.10
2023-09-11T06:42:29.097Z,5.87
2023-09-11T06:44:56.214Z,4.60
2023-09-11T06:47:23.236Z,4.70
2023-09-11T06:49:50.096Z,4.30
2023-09-11T06:52:21.322Z,4.13
2023-09-11T06:54:48.184Z,5.20
2023-09-11T06:57:15.151Z,4.70
2023-09-11T06:59:41.941Z,4.83
2023-09-11T07:02:09.335Z,6.17
2023-09-11T07:04:36.339Z,5.20
2023-09-11T07:07:03.334Z,4.50
2023-09-11T07:09:30.144Z,5.07
2023-09-11T07:11:57.695Z,4.97
2023-09-11T07:14:26.214Z,5.40
2023-09-11T07:16:53.310Z,5.07
2023-09-11T07:19:23.625Z,7.40
2023-09-11T07:21:50.522Z,5.00
2023-09-11T07:24:17.294Z,3.83
2023-09-11T07:26:44.664Z,4.17
2023-09-11T07:29:11.583Z,4.57
2023-09-11T07:31:39.589Z,5.17
2023-09-11T07:34:06.835Z,5.40
2023-09-11T07:36:33.748Z,5.43
2023-09-11T07:39:00.611Z,5.37
2023-09-11T07:41:27.600Z,5.93
2023-09-11T07:43:55.560Z,5.80
2023-09-11T07:46:27.345Z,5.50
2023-09-11T07:48:56.458Z,4.67
2023-09-11T07:51:26.025Z,4.90
2023-09-11T07:53:52.805Z,5.00
2023-09-11T07:56:19.642Z,6.30
2023-09-11T07:58:47.132Z,5.20
2023-09-11T08:01:13.970Z,4.83
2023-09-11T08:03:40.805Z,4.80
2023-09-11T08:06:08.117Z,5.83
2023-09-11T08:08:35.024Z,5.30
2023-09-11T08:11:17.157Z,5.00
2023-09-11T08:13:44.773Z,5.23
2023-09-11T08:16:11.605Z,5.20
2023-09-11T08:18:38.643Z,4.03
2023-09-11T08:21:06.061Z,4.63
2023-09-11T08:23:33.160Z,5.00
2023-09-11T08:26:02.626Z,4.27
2023-09-11T08:28:30.153Z,4.73
2023-09-11T08:30:57.416Z,4.33
2023-09-11T08:33:28.097Z,4.80
2023-09-11T08:35:57.311Z,4.30
2023-09-11T08:38:25.146Z,4.20
2023-09-11T08:40:52.137Z,5.00
2023-09-11T08:43:19.034Z,4.20
2023-09-11T08:45:46.040Z,4.53
2023-09-11T08:48:16.268Z,3.50
2023-09-11T08:50:54.675Z,3.97
2023-09-11T08:53:24.020Z,4.17
2023-09-11T08:55:51.725Z,4.70
2023-09-11T08:58:22.068Z,3.90
2023-09-11T09:00:49.185Z,4.10
2023-09-11T09:03:17.535Z,4.40
2023-09-11T09:05:45.728Z,4.07
2023-09-11T09:08:13.726Z,3.87
2023-09-11T09:10:46.759Z,3.90
2023-09-11T09:13:13.815Z,4.47
2023-09-11T09:15:43.395Z,4.20
2023-09-11T09:18:10.467Z,4.33
2023-09-11T09:20:38.834Z,4.03
2023-09-11T09:23:07.244Z,4.57
2023-09-11T09:25:34.345Z,4.37
2023-09-11T09:28:01.807Z,3.73
2023-09-11T09:30:30.796Z,4.43
2023-09-11T09:32:58.049Z,3.63
2023-09-11T09:35:31.785Z,4.67
2023-09-11T09:37:59.887Z,5.33
2023-09-11T09:40:38.246Z,4.40
2023-09-11T09:43:16.361Z,4.10
2023-09-11T09:45:45.942Z,4.03
2023-09-11T09:48:20.154Z,4.17
2023-09-11T09:51:03.317Z,3.63
2023-09-11T09:53:43.047Z,3.80
2023-09-11T09:56:12.271Z,4.47
2023-09-11T09:58:46.778Z,3.40
2023-09-11T10:01:18.836Z,3.60
2023-09-11T10:03:54.049Z,3.97
2023-09-11T10:06:29.568Z,3.90
2023-09-11T10:09:15.292Z,4.57
2023-09-11T10:11:43.072Z,4.60
2023-09-11T10:14:11.932Z,4.07
2023-09-11T10:16:38.975Z,3.60
2023-09-11T10:19:05.958Z,3.50
2023-09-11T10:21:33.730Z,4.07
2023-09-11T10:24:00.958Z,3.80
2023-09-11T10:26:31.008Z,4.07
2023-09-11T10:29:03.586Z,3.47
2023-09-11T10:31:41.341Z,3.83
2023-09-11T10:34:10.773Z,3.73
2023-09-11T10:36:48.052Z,4.43
2023-09-11T10:39:16.230Z,4.13
2023-09-11T10:41:43.712Z,4.03
2023-09-11T10:44:10.859Z,3.43
2023-09-11T10:46:40.223Z,4.13
2023-09-11T10:49:21.514Z,4.20
2023-09-11T10:51:49.543Z,4.60
2023-09-11T10:54:20.573Z,3.47
2023-09-11T10:56:49.544Z,3.33
2023-09-11T10:59:18.119Z,3.40
2023-09-11T11:01:47.115Z,3.90
2023-09-11T11:04:16.553Z,3.43
2023-09-11T11:06:47.850Z,3.53
2023-09-11T11:12:14.356Z,3.47
2023-09-11T11:14:41.760Z,3.57
2023-09-11T11:17:12.607Z,3.80
2023-09-11T11:19:41.665Z,3.67
2023-09-11T11:22:10.176Z,4.13
2023-09-11T11:24:58.852Z,3.50
2023-09-11T11:27:25.884Z,4.10
2023-09-11T11:29:54.417Z,3.73
2023-09-11T11:32:22.752Z,4.00
2023-09-11T11:34:51.733Z,3.70
2023-09-11T11:37:22.870Z,3.73
2023-09-11T11:39:50.340Z,3.67
2023-09-11T11:42:18.661Z,3.73
2023-09-11T11:44:45.703Z,3.20
2023-09-11T11:47:13.235Z,2.90
2023-09-11T11:49:40.253Z,3.50
2023-09-11T11:52:07.279Z,3.57
2023-09-11T11:54:35.141Z,3.40
2023-09-11T11:57:04.440Z,3.57
2023-09-11T11:59:40.260Z,5.07
2023-09-11T12:02:22.889Z,3.47
2023-09-11T12:04:54.894Z,3.90
2023-09-11T12:07:23.674Z,3.30
2023-09-11T12:09:51.152Z,3.37
2023-09-11T12:12:18.360Z,3.50
2023-09-11T12:14:45.489Z,3.53
2023-09-11T12:17:12.914Z,3.80
2023-09-11T12:19:39.875Z,3.57
2023-09-11T12:22:07.342Z,4.00
2023-09-11T12:24:34.558Z,3.57
2023-09-11T12:27:02.186Z,4.07
2023-09-11T12:29:31.024Z,3.80
2023-09-11T12:31:58.602Z,2.87
2023-09-11T12:34:26.285Z,3.77
2023-09-11T12:36:53.238Z,3.77
2023-09-11T12:39:20.559Z,3.40
2023-09-11T12:41:47.820Z,3.30
2023-09-11T12:44:14.982Z,3.03
2023-09-11T12:46:42.230Z,3.63
2023-09-11T12:49:09.204Z,3.70
2023-09-11T12:51:37.716Z,4.10
2023-09-11T12:54:04.691Z,3.33
2023-09-11T12:56:32.500Z,3.30
2023-09-11T12:58:59.749Z,3.23
2023-09-11T13:01:35.733Z,4.50
2023-09-11T13:04:06.195Z,3.70
2023-09-11T13:06:33.169Z,4.10
2023-09-11T13:09:00.251Z,3.47
2023-09-11T13:11:27.103Z,3.10
2023-09-11T13:14:12.471Z,4.10
2023-09-11T13:16:42.014Z,4.40
2023-09-11T13:19:08.860Z,4.33
2023-09-11T13:21:35.849Z,3.13
2023-09-11T13:24:02.900Z,3.60
2023-09-11T13:26:30.240Z,4.10
2023-09-11T13:28:57.037Z,4.10
2023-09-11T13:31:23.925Z,4.83
2023-09-11T13:33:51.512Z,4.30
2023-09-11T13:36:18.569Z,3.47
2023-09-11T13:38:45.875Z,3.60
2023-09-11T13:41:13.165Z,4.80
2023-09-11T13:43:40.212Z,3.80
2023-09-11T13:46:07.269Z,4.00
2023-09-11T13:48:34.352Z,4.27
2023-09-11T13:51:01.308Z,4.20
2023-09-11T13:53:28.203Z,3.63
2023-09-11T13:55:55.056Z,3.67
2023-09-11T13:58:21.961Z,4.93
2023-09-11T14:00:48.774Z,3.70
2023-09-11T14:03:15.698Z,4.53
2023-09-11T14:05:46.950Z,4.10
2023-09-11T14:08:15.739Z,4.60
2023-09-11T14:10:43.068Z,3.67
2023-09-11T14:13:11.619Z,4.43
2023-09-11T14:15:39.389Z,4.73
2023-09-11T14:18:06.879Z,4.37
2023-09-11T14:20:33.953Z,4.00
2023-09-11T14:23:00.741Z,4.10
2023-09-11T14:25:27.626Z,3.73
2023-09-11T14:27:54.435Z,4.20
2023-09-11T14:30:21.539Z,4.97
2023-09-11T14:32:48.585Z,4.20
2023-09-11T14:35:15.501Z,4.83
2023-09-11T14:37:42.415Z,4.13
2023-09-11T14:40:11.117Z,4.63
2023-09-11T14:42:38.115Z,4.30
2023-09-11T14:45:06.563Z,4.93
2023-09-11T14:47:33.546Z,4.40
2023-09-11T14:50:01.920Z,4.73
2023-09-11T14:52:29.445Z,4.80
2023-09-11T14:54:56.315Z,4.73
2023-09-11T14:57:23.592Z,5.90
2023-09-11T14:59:50.766Z,4.03
2023-09-11T15:02:18.104Z,5.10
2023-09-11T15:04:50.837Z,4.10
2023-09-11T15:07:19.770Z,4.83
2023-09-11T15:09:47.799Z,4.47
2023-09-11T15:12:14.905Z,4.67
2023-09-11T15:14:42.855Z,4.60
2023-09-11T15:17:10.299Z,4.63
2023-09-11T15:19:37.202Z,4.23
2023-09-11T15:22:05.897Z,4.93
2023-09-11T15:24:32.923Z,5.17
2023-09-11T15:26:59.882Z,3.83
2023-09-11T15:29:26.895Z,4.80
2023-09-11T15:32:09.616Z,4.60
2023-09-11T15:34:40.287Z,4.63
2023-09-11T15:37:19.059Z,4.73
2023-09-11T15:39:47.555Z,4.07
2023-09-11T15:42:14.464Z,4.87
2023-09-11T15:44:41.501Z,4.27
2023-09-11T15:47:09.329Z,13.60
2023-09-11T15:49:36.762Z,5.63
2023-09-11T15:52:05.425Z,4.60
2023-09-11T15:54:34.024Z,4.87
2023-09-11T15:57:01.485Z,4.60
2023-09-11T15:59:28.496Z,4.80
2023-09-11T16:01:55.308Z,5.17
2023-09-11T16:04:22.534Z,5.17
2023-09-11T16:06:49.472Z,4.63
2023-09-11T16:09:16.345Z,5.07
2023-09-11T16:11:43.359Z,4.77
2023-09-11T16:14:10.256Z,4.80
2023-09-11T16:16:41.011Z,4.80
2023-09-11T16:19:08.002Z,4.73
2023-09-11T16:21:40.102Z,4.23
2023-09-11T16:24:09.043Z,4.13
2023-09-11T16:26:36.437Z,5.03
2023-09-11T16:29:03.437Z,5.30
2023-09-11T16:31:30.931Z,4.70
2023-09-11T16:33:58.407Z,6.00
2023-09-11T16:36:25.531Z,5.37
2023-09-11T16:38:52.544Z,6.30
2023-09-11T16:41:19.373Z,5.10
2023-09-11T16:43:46.191Z,5.20
2023-09-11T16:46:13.140Z,5.10
2023-09-11T16:48:40.609Z,6.13
2023-09-11T16:51:07.851Z,5.43
2023-09-11T16:53:34.655Z,6.17
2023-09-11T16:56:01.473Z,5.23
2023-09-11T16:58:28.376Z,5.93
2023-09-11T17:01:05.365Z,5.30
2023-09-11T17:03:32.317Z,5.30
2023-09-11T17:05:59.281Z,5.73
2023-09-11T17:08:26.088Z,5.30
2023-09-11T17:10:54.186Z,5.17
2023-09-11T17:13:21.226Z,5.73
2023-09-11T17:15:48.140Z,6.17
2023-09-11T17:18:15.132Z,5.20
2023-09-11T17:20:42.878Z,5.30
2023-09-11T17:23:11.684Z,5.20
2023-09-11T17:25:38.732Z,4.80
2023-09-11T17:28:05.771Z,5.97
2023-09-11T17:30:36.245Z,5.60
2023-09-11T17:33:03.296Z,4.87
2023-09-11T17:35:30.131Z,6.30
2023-09-11T17:37:56.942Z,6.23
2023-09-11T17:40:23.753Z,5.43
2023-09-11T17:42:50.583Z,5.87
2023-09-11T17:45:17.436Z,5.13
2023-09-11T17:47:45.167Z,4.80
2023-09-11T17:50:13.277Z,5.70
2023-09-11T17:52:40.083Z,6.83
2023-09-11T17:55:07.246Z,6.20
2023-09-11T17:57:34.073Z,5.77
2023-09-11T18:00:01.007Z,6.10
2023-09-11T18:02:28.072Z,5.60
2023-09-11T18:04:56.833Z,5.63
2023-09-11T18:07:25.890Z,5.20
2023-09-11T18:09:52.736Z,6.17
2023-09-11T18:12:19.758Z,5.97
2023-09-11T18:14:46.680Z,5.20
2023-09-11T18:17:13.499Z,7.10
2023-09-11T18:19:40.300Z,6.60
2023-09-11T18:22:07.159Z,7.03
2023-09-11T18:24:35.442Z,5.90
2023-09-11T18:27:03.486Z,6.60
2023-09-11T18:29:30.296Z,6.37
2023-09-11T18:31:57.143Z,5.70
2023-09-11T18:34:24.160Z,6.27
2023-09-11T18:36:51.189Z,5.30
2023-09-11T18:39:23.294Z,5.60
2023-09-11T18:41:55.648Z,6.73
2023-09-11T18:44:22.567Z,7.27
2023-09-11T18:46:49.377Z,5.37
2023-09-11T18:49:16.417Z,6.13
2023-09-11T18:51:43.392Z,6.33
2023-09-11T18:54:16.189Z,5.90
2023-09-11T18:56:43.386Z,5.90
2023-09-11T18:59:10.287Z,5.97
2023-09-11T19:01:39.794Z,6.33
2023-09-11T19:04:07.293Z,7.47
2023-09-11T19:06:34.256Z,6.17
2023-09-11T19:09:02.297Z,5.83
2023-09-11T19:11:30.309Z,6.00
2023-09-11T19:13:57.293Z,6.30
2023-09-11T19:16:24.187Z,6.37
2023-09-11T19:18:51.104Z,6.57
2023-09-11T19:21:18.064Z,5.80
2023-09-11T19:23:44.883Z,5.90
2023-09-11T19:26:11.751Z,6.63
2023-09-11T19:28:40.194Z,6.33
2023-09-11T19:31:07.246Z,6.03
2023-09-11T19:33:34.250Z,7.03
2023-09-11T19:36:01.181Z,6.03
2023-09-11T19:38:28.319Z,6.87
2023-09-11T19:40:55.250Z,6.07
2023-09-11T19:43:22.449Z,5.80
2023-09-11T19:45:49.381Z,6.20
2023-09-11T19:48:16.401Z,6.13
2023-09-11T19:50:43.503Z,7.07
2023-09-11T19:53:11.853Z,7.23
2023-09-11T19:55:40.709Z,5.37
2023-09-11T19:58:09.175Z,6.60
2023-09-11T20:00:35.982Z,6.13
2023-09-11T20:03:03.045Z,6.27
2023-09-11T20:05:30.022Z,5.90
2023-09-11T20:07:56.901Z,5.67
2023-09-11T20:10:24.586Z,5.93
2023-09-11T20:12:51.464Z,6.10
2023-09-11T20:15:18.973Z,6.77
2023-09-11T20:17:46.120Z,6.60
2023-09-11T20:20:13.360Z,5.60
2023-09-11T20:22:40.310Z,6.77
2023-09-11T20:25:07.407Z,6.60
2023-09-11T20:27:34.455Z,7.00
2023-09-11T20:30:01.469Z,7.57
2023-09-11T20:32:28.454Z,7.57
2023-09-11T20:35:02.914Z,7.10
2023-09-11T20:37:34.671Z,6.63
2023-09-11T20:40:01.901Z,7.17
2023-09-11T20:42:29.050Z,7.70
2023-09-11T20:44:55.948Z,7.47
2023-09-11T20:47:22.937Z,6.03
2023-09-11T20:49:49.976Z,7.03
2023-09-11T20:52:16.805Z,6.60
2023-09-11T20:54:43.614Z,6.50
2023-09-11T20:57:10.582Z,7.07
2023-09-11T20:59:37.615Z,7.13
2023-09-11T21:02:04.509Z,6.60
2023-09-11T21:04:31.463Z,6.80
2023-09-11T21:06:58.396Z,6.50
2023-09-11T21:09:25.364Z,7.20
2023-09-11T21:11:52.361Z,7.60
2023-09-11T21:14:21.396Z,5.93
2023-09-11T21:16:48.274Z,6.57
2023-09-11T21:19:15.063Z,6.60
2023-09-11T21:21:41.880Z,8.00
2023-09-11T21:24:08.776Z,6.13
2023-09-11T21:26:35.625Z,5.87
2023-09-11T21:29:04.058Z,7.07
2023-09-11T21:31:31.082Z,6.77
2023-09-11T21:33:58.122Z,7.13
2023-09-11T21:36:25.136Z,6.80
2023-09-11T21:38:51.948Z,6.90
2023-09-11T21:41:19.542Z,7.63
2023-09-11T21:43:47.763Z,6.00
2023-09-11T21:46:17.148Z,7.10
2023-09-11T21:48:44.495Z,6.50
2023-09-11T21:51:11.658Z,6.50
2023-09-11T21:53:40.585Z,6.90
2023-09-11T21:56:07.714Z,8.00
2023-09-11T21:58:34.508Z,7.60
2023-09-11T22:01:04.054Z,6.47
2023-09-11T22:03:31.512Z,6.00
2023-09-11T22:05:58.553Z,6.23
2023-09-11T22:08:25.367Z,6.70
2023-09-11T22:10:52.225Z,6.23
2023-09-11T22:13:20.683Z,6.50
2023-09-11T22:15:48.943Z,7.70
2023-09-11T22:18:15.773Z,6.63
2023-09-11T22:20:42.608Z,6.50
2023-09-11T22:23:09.389Z,5.97
2023-09-11T22:25:36.181Z,6.50
2023-09-11T22:28:03.123Z,6.57
2023-09-11T22:30:30.034Z,6.43
2023-09-11T22:32:58.062Z,6.40
2023-09-11T22:35:25.366Z,6.87
2023-09-11T22:37:53.273Z,6.40
2023-09-11T22:40:20.186Z,5.93
2023-09-11T22:42:47.006Z,6.97
2023-09-11T22:45:13.843Z,7.13
2023-09-11T22:47:41.449Z,6.63
2023-09-11T22:50:09.228Z,7.23
2023-09-11T22:52:38.848Z,6.77
2023-09-11T22:55:06.664Z,6.90
2023-09-11T22:57:33.545Z,7.53
2023-09-11T23:00:01.085Z,6.00
2023-09-11T23:02:28.285Z,6.63
2023-09-11T23:04:55.217Z,6.10
2023-09-11T23:07:22.036Z,6.73
2023-09-11T23:09:49.646Z,6.67
2023-09-11T23:12:16.699Z,6.17
2023-09-11T23:14:43.540Z,7.07
2023-09-11T23:17:10.389Z,6.60
2023-09-11T23:19:37.170Z,6.70
2023-09-11T23:22:04.142Z,6.23
2023-09-11T23:24:30.993Z,6.77
2023-09-11T23:26:59.925Z,7.40
2023-09-11T23:29:26.786Z,7.20
2023-09-11T23:31:53.589Z,7.40
2023-09-11T23:34:20.415Z,7.13
2023-09-11T23:36:47.196Z,6.53
2023-09-11T23:39:14.136Z,7.40
2023-09-11T23:41:41.020Z,6.83
2023-09-11T23:44:09.180Z,6.80
2023-09-11T23:46:36.251Z,6.63
2023-09-11T23:49:04.813Z,7.00
2023-09-11T23:51:34.472Z,6.00
2023-09-11T23:54:01.480Z,5.93
2023-09-11T23:56:28.498Z,7.17
2023-09-11T23:58:55.309Z,6.63
